Time;durP1;ratioP1;P1;durP2;ratioP2;P2;SDS_P1;SDS_P2;PMS_P1;PMS_P2;Temp;Humidity;BMP_temperature;BMP_pressure;BME280_temperature;BME280_humidity;BME280_pressure;Samples;Min_cycle;Max_cycle;Signal;HPM_P1;HPM_P2
2023/08/18 00:01:47;;;;;;;15.52;11.50;;;;;;;16.68;100.00;101297.84;6173965;23;20024;-69
2023/08/18 00:04:14;;;;;;;16.88;10.02;;;;;;;16.78;100.00;101316.63;6176258;23;20029;-67
2023/08/18 00:06:40;;;;;;;12.00;9.95;;;;;;;16.77;100.00;101314.91;6173771;23;20088;-68
2023/08/18 00:09:07;;;;;;;13.80;9.50;;;;;;;16.60;100.00;101286.03;6199184;23;20023;-69
2023/08/18 00:11:34;;;;;;;11.52;9.57;;;;;;;16.65;100.00;101299.84;6175782;23;20016;-69
2023/08/18 00:14:00;;;;;;;10.50;9.40;;;;;;;16.57;100.00;101283.63;6195412;23;20626;-68
2023/08/18 00:16:27;;;;;;;13.15;10.63;;;;;;;16.66;100.00;101317.47;6200789;23;20568;-68
2023/08/18 00:18:53;;;;;;;14.15;10.52;;;;;;;16.68;100.00;101336.75;6202340;23;20070;-68
2023/08/18 00:21:20;;;;;;;13.52;10.65;;;;;;;16.67;100.00;101316.50;6177586;23;20004;-68
2023/08/18 00:23:46;;;;;;;16.80;11.10;;;;;;;15.76;100.00;101166.34;6202449;23;20100;-68
2023/08/18 00:26:13;;;;;;;12.82;10.48;;;;;;;15.69;100.00;101172.94;6204996;23;20075;-68
2023/08/18 00:28:39;;;;;;;13.18;10.13;;;;;;;16.64;100.00;101312.25;6204692;23;20051;-68
2023/08/18 00:31:06;;;;;;;12.80;10.93;;;;;;;16.63;100.00;101309.69;6204410;23;20052;-68
2023/08/18 00:33:32;;;;;;;16.52;10.93;;;;;;;16.33;100.00;101250.72;6201272;23;20024;-68
2023/08/18 00:35:58;;;;;;;15.23;10.27;;;;;;;15.65;100.00;101155.56;6175989;23;20088;-69
2023/08/18 00:38:25;;;;;;;10.43;9.38;;;;;;;16.57;100.00;101310.97;6201615;23;20617;-68
2023/08/18 00:40:51;;;;;;;19.70;11.82;;;;;;;16.29;100.00;101259.00;6177062;23;20020;-68
2023/08/18 00:43:18;;;;;;;18.20;11.23;;;;;;;16.58;100.00;101309.16;6176568;23;20028;-68
2023/08/18 00:45:44;;;;;;;15.82;10.15;;;;;;;16.47;100.00;101310.72;6172512;23;20494;-68
2023/08/18 00:48:11;;;;;;;15.23;10.55;;;;;;;15.66;100.00;101171.34;6201276;23;20030;-68
2023/08/18 00:50:38;;;;;;;19.25;11.15;;;;;;;16.17;100.00;101255.38;6164455;23;20020;-68
2023/08/18 00:53:07;;;;;;;15.00;10.88;;;;;;;16.38;100.00;101291.94;6173675;23;20513;-69
2023/08/18 00:55:33;;;;;;;13.60;10.35;;;;;;;16.29;100.00;101281.03;6171003;23;20027;-69
2023/08/18 00:58:03;;;;;;;12.73;10.38;;;;;;;16.29;100.00;101281.03;6172814;23;20036;-69
2023/08/18 01:00:30;;;;;;;16.08;11.77;;;;;;;16.15;100.00;101265.22;6170817;23;20029;-69
2023/08/18 01:02:57;;;;;;;16.73;10.63;;;;;;;15.45;100.00;101147.13;6174459;23;20019;-68
2023/08/18 01:05:23;;;;;;;15.95;11.15;;;;;;;16.34;100.00;101297.47;6200515;23;20438;-68
2023/08/18 01:07:49;;;;;;;13.88;10.55;;;;;;;16.33;100.00;101294.91;6172592;23;20037;-69
2023/08/18 01:10:16;;;;;;;12.95;10.50;;;;;;;16.40;100.00;101325.34;6201709;23;20087;-69
2023/08/18 01:12:53;;;;;;;17.25;11.68;;;;;;;16.40;100.00;101303.28;6199526;23;20046;-68
2023/08/18 01:15:27;;;;;;;16.33;11.65;;;;;;;16.06;100.00;101257.91;6202900;23;20549;-69
2023/08/18 01:17:55;;;;;;;18.98;11.73;;;;;;;15.29;100.00;101128.78;6196151;23;20026;-69
2023/08/18 01:20:26;;;;;;;20.15;12.35;;;;;;;16.35;100.00;101307.09;6203805;23;20018;-69
2023/08/18 01:23:17;;;;;;;13.00;10.35;;;;;;;16.37;100.00;101303.50;6169436;23;20670;-69
2023/08/18 01:25:44;;;;;;;13.88;10.05;;;;;;;15.91;100.00;101234.09;6200214;23;20028;-69
2023/08/18 01:28:10;;;;;;;17.35;11.90;;;;;;;15.90;100.00;101234.22;6199463;23;20027;-69
2023/08/18 01:30:51;;;;;;;17.85;10.90;;;;;;;16.03;100.00;101248.34;6198513;23;20039;-69
2023/08/18 01:33:28;;;;;;;17.40;11.90;;;;;;;16.17;100.00;101283.66;6145207;23;20088;-69
2023/08/18 01:36:02;;;;;;;15.23;11.13;;;;;;;16.09;100.00;101252.38;6168248;23;20595;-69
2023/08/18 01:38:30;;;;;;;14.75;11.00;;;;;;;15.50;100.00;101162.72;6200664;23;20051;-69
2023/08/18 01:40:58;;;;;;;13.13;10.95;;;;;;;16.24;100.00;101288.44;6203101;23;20025;-69
2023/08/18 01:43:26;;;;;;;13.35;11.07;;;;;;;16.27;100.00;101296.16;6206867;23;20071;-69
2023/08/18 01:45:53;;;;;;;14.98;11.52;;;;;;;16.15;100.00;101283.75;6174604;23;20348;-69
2023/08/18 01:48:19;;;;;;;18.88;11.18;;;;;;;15.21;100.00;101119.66;6204256;23;20004;-69
2023/08/18 01:50:46;;;;;;;14.95;10.52;;;;;;;15.75;100.00;101210.47;6206037;23;20099;-69
2023/08/18 01:53:12;;;;;;;13.00;10.07;;;;;;;16.05;100.00;101262.31;6204774;23;20624;-69
2023/08/18 01:55:39;;;;;;;17.77;12.20;;;;;;;15.89;100.00;101230.72;6175373;23;20047;-69
2023/08/18 01:58:05;;;;;;;13.98;11.25;;;;;;;16.21;100.00;101291.28;6205654;23;20476;-70
2023/08/18 02:00:51;;;;;;;16.00;11.77;;;;;;;15.25;100.00;101129.94;6179208;23;20048;-69
2023/08/18 02:03:18;;;;;;;14.98;11.57;;;;;;;15.47;100.00;101161.13;6197332;23;20430;-69
2023/08/18 02:05:44;;;;;;;15.02;11.18;;;;;;;15.90;100.00;101232.44;6203689;23;20058;-69
2023/08/18 02:08:11;;;;;;;22.17;13.05;;;;;;;16.29;100.00;101293.44;6179057;23;20721;-70
2023/08/18 02:10:37;;;;;;;15.15;12.07;;;;;;;16.03;100.00;101248.34;6200363;23;20448;-69
2023/08/18 02:13:05;;;;;;;19.50;12.27;;;;;;;16.05;100.00;101264.13;6175177;23;20648;-69
2023/08/18 02:15:32;;;;;;;19.92;12.32;;;;;;;16.04;100.00;101265.09;6198605;23;20026;-69
2023/08/18 02:17:58;;;;;;;14.35;10.63;;;;;;;16.22;100.00;101295.63;6162599;23;20116;-69
2023/08/18 02:20:43;;;;;;;12.80;10.30;;;;;;;15.15;100.00;101115.59;6151759;23;20107;-69
2023/08/18 02:23:28;;;;;;;14.07;11.10;;;;;;;15.98;100.00;101265.50;6205351;23;20035;-69
2023/08/18 02:26:02;;;;;;;15.75;12.40;;;;;;;16.13;100.00;101294.44;6154207;23;20023;-69
2023/08/18 02:28:29;;;;;;;17.85;12.10;;;;;;;16.06;100.00;101284.38;6202928;23;20641;-69
2023/08/18 02:31:04;;;;;;;17.38;11.57;;;;;;;15.85;100.00;101252.19;6204917;23;20488;-69
2023/08/18 02:33:32;;;;;;;14.05;10.75;;;;;;;15.25;100.00;101152.88;6175838;23;20714;-70
2023/08/18 02:35:59;;;;;;;18.00;11.57;;;;;;;16.08;100.00;101299.19;6184982;23;21622;-69
2023/08/18 02:38:26;;;;;;;17.73;12.02;;;;;;;16.01;100.00;101283.81;6203969;23;20080;-69
2023/08/18 02:40:53;;;;;;;15.68;11.50;;;;;;;16.00;100.00;101282.13;6201497;23;20032;-69
2023/08/18 02:43:22;;;;;;;15.85;10.82;;;;;;;15.94;100.00;101270.13;6201620;23;20020;-69
2023/08/18 02:45:56;;;;;;;18.73;12.13;;;;;;;15.67;100.00;101244.47;6202185;23;20726;-71
2023/08/18 02:48:43;;;;;;;15.32;11.23;;;;;;;15.86;100.00;101267.16;6205987;23;20008;-69
2023/08/18 02:51:46;;;;;;;18.83;11.38;;;;;;;16.01;100.00;101287.31;6202849;23;20077;-70
2023/08/18 02:57:15;;;;;;;16.90;10.70;;;;;;;15.93;100.00;101279.00;6203799;23;20019;-70
2023/08/18 02:59:57;;;;;;;18.42;11.77;;;;;;;15.91;100.00;101275.63;6153797;23;20082;-68
2023/08/18 03:02:24;;;;;;;16.60;11.38;;;;;;;16.02;100.00;101312.84;6204678;23;20020;-70
2023/08/18 03:04:50;;;;;;;14.38;11.40;;;;;;;15.99;100.00;101289.19;6202704;23;20095;-70
2023/08/18 03:07:17;;;;;;;17.95;10.30;;;;;;;15.87;100.00;101279.41;6205311;23;20028;-69
2023/08/18 03:09:43;;;;;;;13.68;10.13;;;;;;;15.29;100.00;101186.13;6200083;23;20431;-70
2023/08/18 03:12:10;;;;;;;18.83;11.00;;;;;;;15.85;100.00;101300.69;6204281;23;20012;-70
2023/08/18 03:14:36;;;;;;;14.77;9.95;;;;;;;15.80;100.00;101284.28;6206741;23;20107;-68
2023/08/18 03:17:02;;;;;;;17.55;10.57;;;;;;;15.82;100.00;101303.53;6202901;23;20631;-68
2023/08/18 03:19:29;;;;;;;21.35;10.93;;;;;;;15.70;100.00;101264.63;6208232;23;20638;-68
2023/08/18 03:21:56;;;;;;;15.13;10.75;;;;;;;15.88;100.00;101284.63;6173254;23;20047;-70
2023/08/18 03:24:22;;;;;;;15.32;10.63;;;;;;;15.85;100.00;101292.75;6178714;23;20023;-68
2023/08/18 03:26:49;;;;;;;17.77;11.60;;;;;;;15.88;100.00;101294.38;6200403;23;20020;-68
2023/08/18 03:29:15;;;;;;;20.08;11.57;;;;;;;15.80;100.00;101272.84;6202695;23;20020;-69
2023/08/18 03:31:42;;;;;;;18.33;11.23;;;;;;;15.95;100.00;101301.78;6174296;23;20048;-69
2023/08/18 03:34:08;;;;;;;17.98;12.52;;;;;;;15.84;100.00;101285.78;6202869;23;20110;-69
2023/08/18 03:36:35;;;;;;;19.27;12.43;;;;;;;15.89;100.00;101293.41;6207071;23;20016;-68
2023/08/18 03:39:01;;;;;;;20.42;11.57;;;;;;;15.95;100.00;101304.44;6174241;23;20024;-68
2023/08/18 03:41:29;;;;;;;23.15;13.10;;;;;;;15.91;100.00;101305.56;6204155;23;20075;-69
2023/08/18 03:43:55;;;;;;;19.75;12.35;;;;;;;15.82;100.00;101287.66;6203908;23;20751;-69
2023/08/18 03:46:25;;;;;;;19.40;11.25;;;;;;;15.28;100.00;101197.66;6199680;23;20012;-69
2023/08/18 03:48:51;;;;;;;19.67;12.90;;;;;;;15.95;100.00;101299.13;6171959;23;20031;-69
2023/08/18 03:51:18;;;;;;;15.35;11.02;;;;;;;15.86;100.00;101296.25;6175109;23;20016;-69
2023/08/18 03:53:44;;;;;;;16.25;11.93;;;;;;;16.04;100.00;101316.25;6182373;23;20224;-68
2023/08/18 03:56:11;;;;;;;22.92;11.70;;;;;;;14.95;100.00;101154.75;6203724;23;20537;-68
2023/08/18 03:58:37;;;;;;;17.85;11.07;;;;;;;15.87;100.00;101293.50;6180436;23;20028;-68
2023/08/18 04:01:06;;;;;;;18.92;11.68;;;;;;;16.11;100.00;101338.69;6170397;23;20019;-68
2023/08/18 04:03:38;;;;;;;22.17;12.00;;;;;;;16.15;100.00;101334.91;6199225;23;20075;-68
2023/08/18 04:06:05;;;;;;;20.30;12.43;;;;;;;16.08;100.00;101324.84;6174549;23;20607;-69
2023/08/18 04:08:40;;;;;;;24.98;14.13;;;;;;;16.26;100.00;101342.16;6198988;23;20900;-68
2023/08/18 04:11:06;;;;;;;21.58;12.52;;;;;;;15.37;100.00;101189.09;6183527;23;20095;-68
2023/08/18 04:13:33;;;;;;;22.42;12.38;;;;;;;16.35;100.00;101346.81;6203240;23;20068;-69
2023/08/18 04:15:59;;;;;;;20.58;12.65;;;;;;;15.33;100.00;101171.75;6171131;23;20117;-68
2023/08/18 04:18:26;;;;;;;21.20;12.15;;;;;;;16.09;100.00;101298.22;6174259;23;20081;-68
2023/08/18 04:20:52;;;;;;;21.52;13.02;;;;;;;15.15;100.00;101140.28;6199685;23;20054;-69
2023/08/18 04:23:19;;;;;;;22.27;13.32;;;;;;;15.41;100.00;101187.13;6197140;23;20072;-68
2023/08/18 04:25:45;;;;;;;16.52;11.35;;;;;;;16.51;100.00;101349.31;6175349;23;20024;-69
2023/08/18 04:28:12;;;;;;;20.98;12.88;;;;;;;16.52;100.00;101351.03;6176799;23;20035;-68
2023/08/18 04:30:38;;;;;;;23.50;13.27;;;;;;;16.56;100.00;101354.31;6202571;23;20008;-68
2023/08/18 04:33:06;;;;;;;26.50;12.73;;;;;;;16.49;100.00;101332.66;6200543;23;20055;-68
2023/08/18 04:35:32;;;;;;;21.23;10.80;;;;;;;16.63;100.00;101352.09;6201242;23;20045;-68
2023/08/18 04:37:59;;;;;;;20.55;13.43;;;;;;;16.64;100.00;101348.50;6202124;23;20521;-68
2023/08/18 04:40:25;;;;;;;24.30;12.88;;;;;;;16.66;100.00;101351.91;6201138;23;20095;-69
2023/08/18 04:42:52;;;;;;;17.80;12.30;;;;;;;16.68;100.00;101350.84;6202036;23;20055;-68
2023/08/18 04:45:20;;;;;;;25.70;12.88;;;;;;;16.56;100.00;101330.47;6201752;23;20116;-69
2023/08/18 04:47:47;;;;;;;28.33;13.10;;;;;;;15.55;100.00;101164.13;6203480;23;20409;-69
2023/08/18 04:50:14;;;;;;;22.27;12.68;;;;;;;15.60;100.00;101173.56;6204487;23;20043;-68
2023/08/18 04:52:40;;;;;;;21.25;12.07;;;;;;;15.83;100.00;101199.34;6201936;23;20116;-68
2023/08/18 04:55:07;;;;;;;17.38;11.57;;;;;;;15.72;100.00;101180.69;6205319;23;20019;-69
2023/08/18 04:57:33;;;;;;;18.25;11.02;;;;;;;16.84;100.00;101344.50;6201045;23;20026;-69
2023/08/18 05:00:00;;;;;;;18.88;12.10;;;;;;;16.74;100.00;101339.81;6172382;23;20039;-71
2023/08/18 05:02:26;;;;;;;22.75;12.05;;;;;;;16.81;100.00;101323.50;6201326;23;20027;-69
2023/08/18 05:04:53;;;;;;;21.83;13.65;;;;;;;16.64;100.00;101285.75;6176356;23;20020;-69
2023/08/18 05:07:21;;;;;;;21.65;10.90;;;;;;;16.52;100.00;101254.78;6195077;23;20091;-69
2023/08/18 05:09:48;;;;;;;22.17;12.30;;;;;;;16.86;100.00;101295.75;6176295;23;20047;-68
2023/08/18 05:12:14;;;;;;;20.83;11.90;;;;;;;16.94;100.00;101304.03;6202692;23;20015;-69
2023/08/18 05:14:41;;;;;;;18.95;12.38;;;;;;;17.07;100.00;101319.91;6171255;23;20102;-69
2023/08/18 05:17:07;;;;;;;22.10;11.68;;;;;;;17.10;100.00;101319.72;6171784;23;20012;-69
2023/08/18 05:19:34;;;;;;;17.05;11.38;;;;;;;16.35;100.00;101179.09;6199380;23;20506;-70
2023/08/18 05:22:00;;;;;;;20.40;12.05;;;;;;;17.26;100.00;101302.72;6170787;23;20008;-69
2023/08/18 05:24:27;;;;;;;15.75;10.98;;;;;;;17.14;100.00;101297.34;6195645;23;20017;-69
2023/08/18 05:26:53;;;;;;;17.17;11.75;;;;;;;17.13;100.00;101310.69;6143529;23;20026;-69
2023/08/18 05:29:20;;;;;;;15.52;11.38;;;;;;;16.17;100.00;101144.13;6199094;23;20418;-69
2023/08/18 05:31:47;;;;;;;16.63;11.77;;;;;;;17.18;100.00;101290.00;6200861;23;20087;-69
2023/08/18 05:34:13;;;;;;;15.80;10.95;;;;;;;17.11;100.00;101278.97;6168563;23;20053;-69
2023/08/18 05:36:39;;;;;;;15.45;10.63;;;;;;;17.27;100.00;101276.09;6178616;23;20580;-69
2023/08/18 05:39:06;;;;;;;17.20;11.60;;;;;;;16.68;100.00;101167.97;6196730;23;20119;-69
2023/08/18 05:41:32;;;;;;;14.80;10.95;;;;;;;17.39;100.00;101287.63;6195125;23;20008;-69
2023/08/18 05:43:59;;;;;;;17.05;11.32;;;;;;;17.43;100.00;101278.50;6169647;23;20025;-69
2023/08/18 05:46:25;;;;;;;15.15;10.52;;;;;;;17.57;100.00;101285.44;6202435;23;20103;-69
2023/08/18 05:48:52;;;;;;;15.93;11.05;;;;;;;16.63;100.00;101129.50;6199018;23;20036;-69
2023/08/18 05:51:19;;;;;;;16.10;11.00;;;;;;;16.61;100.00;101118.16;6174223;23;20030;-69
2023/08/18 05:53:45;;;;;;;16.65;11.55;;;;;;;17.53;100.00;101262.75;6173954;23;20016;-69
2023/08/18 05:56:12;;;;;;;16.15;11.95;;;;;;;17.61;100.00;101267.50;6197716;23;20008;-71
2023/08/18 05:58:38;;;;;;;15.40;10.85;;;;;;;17.51;100.00;101233.66;6201162;23;20897;-71
2023/08/18 06:01:04;;;;;;;15.52;10.85;;;;;;;17.65;100.00;101237.13;6198608;23;20032;-71
2023/08/18 06:03:31;;;;;;;15.50;11.57;;;;;;;16.85;100.00;101113.78;6204141;23;20030;-71
2023/08/18 06:06:00;;;;;;;16.05;11.13;;;;;;;17.65;100.00;101226.50;6172175;23;20071;-71
2023/08/18 06:08:32;;;;;;;20.65;10.70;;;;;;;17.89;100.00;101251.25;6201677;23;20020;-70
2023/08/18 06:10:58;;;;;;;18.33;12.25;;;;;;;16.89;100.00;101086.09;6165774;23;20707;-70
2023/08/18 06:13:27;;;;;;;15.35;10.80;;;;;;;17.02;100.00;101094.00;6200146;23;20040;-71
2023/08/18 06:15:54;;;;;;;15.88;10.50;;;;;;;17.04;100.00;101096.53;6177919;23;20714;-70
2023/08/18 06:18:21;;;;;;;15.48;10.90;;;;;;;17.96;100.00;101237.53;6201168;23;20087;-70
2023/08/18 06:20:49;;;;;;;13.43;10.18;;;;;;;18.00;100.00;101244.31;6204279;23;20044;-71
2023/08/18 06:23:16;;;;;;;13.73;10.60;;;;;;;17.79;100.00;101222.84;6195477;23;20083;-70
2023/08/18 06:25:42;;;;;;;15.35;10.90;;;;;;;16.90;100.00;101086.97;6174274;23;20735;-71
2023/08/18 06:28:09;;;;;;;17.00;10.82;;;;;;;17.99;100.00;101239.97;6200707;23;20024;-71
2023/08/18 06:30:35;;;;;;;16.67;11.02;;;;;;;18.05;100.00;101215.59;6171739;23;20096;-71
2023/08/18 06:33:02;;;;;;;16.00;11.07;;;;;;;18.25;100.00;101232.69;6201810;23;20026;-71
2023/08/18 06:35:29;;;;;;;17.65;11.85;;;;;;;18.23;100.00;101224.81;6205359;23;20815;-71
2023/08/18 06:37:55;;;;;;;17.70;10.95;;;;;;;18.38;100.00;101225.47;6200626;23;20602;-71
2023/08/18 06:40:22;;;;;;;13.25;10.65;;;;;;;18.44;100.00;101219.69;6201001;23;20024;-71
2023/08/18 06:42:49;;;;;;;13.82;10.52;;;;;;;17.84;100.00;101101.22;6173923;23;20016;-71
2023/08/18 06:45:15;;;;;;;12.10;9.38;;;;;;;18.59;100.00;101217.66;6203076;23;20103;-71
2023/08/18 06:47:43;;;;;;;11.85;9.95;;;;;;;18.01;100.00;101079.53;6200273;23;20035;-70
2023/08/18 06:50:09;;;;;;;12.70;10.30;;;;;;;18.80;100.00;101187.72;6200502;23;20230;-71
2023/08/18 06:52:36;;;;;;;13.25;10.45;;;;;;;18.47;100.00;101189.38;6200616;23;20024;-71
2023/08/18 06:55:06;;;;;;;13.48;10.85;;;;;;;18.14;100.00;101129.88;6203932;23;20022;-71
2023/08/18 06:57:33;;;;;;;16.00;9.90;;;;;;;18.66;100.00;101194.94;6203800;23;20016;-71
2023/08/18 06:59:59;;;;;;;14.15;10.68;;;;;;;18.88;100.00;101198.59;6198488;23;20768;-71
2023/08/18 07:02:26;;;;;;;18.35;10.20;;;;;;;19.08;100.00;101189.88;6203572;23;20032;-71
2023/08/18 07:04:53;;;;;;;12.60;10.40;;;;;;;19.19;100.00;101177.53;6145818;23;20088;-71
2023/08/18 07:07:20;;;;;;;12.80;9.95;;;;;;;19.24;100.00;101159.34;6174945;23;20020;-71
2023/08/18 07:09:46;;;;;;;16.67;10.75;;;;;;;19.40;100.00;101130.50;6204497;23;20039;-71
2023/08/18 07:12:13;;;;;;;14.45;10.02;;;;;;;19.56;100.00;101103.44;6200895;23;20020;-71
2023/08/18 07:14:39;;;;;;;12.63;9.50;;;;;;;19.91;100.00;101123.66;6201748;23;20044;-70
2023/08/18 07:17:06;;;;;;;14.10;10.63;;;;;;;20.23;100.00;101104.91;6175622;23;20025;-71
2023/08/18 07:19:34;;;;;;;11.48;9.48;;;;;;;20.41;100.00;101073.13;6180816;23;20112;-71
2023/08/18 07:22:01;;;;;;;12.40;10.05;;;;;;;20.29;100.00;101059.06;6199937;23;20023;-72
2023/08/18 07:24:27;;;;;;;10.55;9.50;;;;;;;20.68;100.00;101045.03;6204629;23;20057;-71
2023/08/18 07:26:55;;;;;;;10.38;9.35;;;;;;;20.84;100.00;101013.31;6195316;23;20016;-71
2023/08/18 07:29:21;;;;;;;11.13;9.63;;;;;;;19.80;100.00;100868.03;6201454;23;20087;-71
2023/08/18 07:31:48;;;;;;;11.35;9.75;;;;;;;20.07;100.00;100899.38;6177151;23;20444;-71
2023/08/18 07:34:14;;;;;;;12.98;9.80;;;;;;;20.11;100.00;100845.66;6176917;23;20040;-71
2023/08/18 07:36:41;;;;;;;12.20;9.35;;;;;;;21.11;100.00;100959.25;6177602;23;20031;-72
2023/08/18 07:39:10;;;;;;;10.48;9.43;;;;;;;21.10;100.00;100954.88;6199916;23;20030;-71
2023/08/18 07:41:43;;;;;;;12.25;9.95;;;;;;;21.20;100.00;100962.88;6155363;23;20051;-72
2023/08/18 07:44:10;;;;;;;10.30;9.30;;;;;;;21.41;100.00;100871.06;6199672;23;20047;-72
2023/08/18 07:46:37;;;;;;;10.25;9.20;;;;;;;21.96;100.00;100915.72;6173085;23;20612;-71
2023/08/18 07:49:04;;;;;;;10.63;9.57;;;;;;;21.89;100.00;100888.75;6204286;23;20091;-72
2023/08/18 07:51:31;;;;;;;9.98;8.98;;;;;;;21.99;100.00;100878.84;6197952;23;20096;-72
2023/08/18 07:53:57;;;;;;;12.82;10.75;;;;;;;21.66;100.00;100842.91;6170528;23;20477;-71
2023/08/18 07:56:24;;;;;;;10.45;9.35;;;;;;;21.11;100.00;100887.19;6196206;23;20020;-72
2023/08/18 07:58:50;;;;;;;10.80;9.10;;;;;;;21.41;100.00;100937.81;6197956;23;20625;-72
2023/08/18 08:01:19;;;;;;;11.82;9.82;;;;;;;21.77;100.00;100941.56;6199252;23;20004;-73
2023/08/18 08:03:45;;;;;;;11.02;9.90;;;;;;;22.00;100.00;100895.72;6174911;23;20098;-71
2023/08/18 08:06:12;;;;;;;10.68;9.57;;;;;;;21.98;100.00;100869.13;6197441;23;20000;-70
2023/08/18 08:08:38;;;;;;;11.10;9.00;;;;;;;21.25;100.00;100746.25;6203375;23;20090;-71
2023/08/18 08:11:05;;;;;;;11.70;9.40;;;;;;;21.28;100.00;100727.25;6198057;23;20713;-72
2023/08/18 08:13:31;;;;;;;11.00;9.07;;;;;;;22.86;99.63;100841.72;6171782;23;20032;-71
2023/08/18 08:15:58;;;;;;;12.85;9.95;;;;;;;22.44;99.90;100823.66;6206089;23;20036;-71
2023/08/18 08:18:24;;;;;;;10.88;9.73;;;;;;;23.07;97.83;100827.97;6202743;23;20085;-72
2023/08/18 08:20:51;;;;;;;10.55;9.55;;;;;;;22.47;95.57;100679.78;6198899;23;20088;-71
2023/08/18 08:23:17;;;;;;;10.65;9.68;;;;;;;21.86;97.88;100689.50;6194955;23;20035;-71
2023/08/18 08:25:44;;;;;;;9.27;8.48;;;;;;;22.84;97.44;100822.31;6177894;23;20654;-71
2023/08/18 08:28:10;;;;;;;12.43;9.23;;;;;;;22.94;97.99;100822.19;6167445;23;20054;-71
2023/08/18 08:30:38;;;;;;;12.15;8.93;;;;;;;22.92;97.58;100822.34;6178266;23;20024;-71
2023/08/18 08:33:04;;;;;;;10.13;8.70;;;;;;;22.99;96.81;100790.44;6199907;23;20024;-72
2023/08/18 08:35:32;;;;;;;10.48;9.18;;;;;;;22.97;94.43;100776.38;6173090;23;20086;-69
2023/08/18 08:37:59;;;;;;;9.43;8.52;;;;;;;23.63;92.45;100794.44;6174582;23;20020;-73
2023/08/18 08:40:26;;;;;;;9.77;8.90;;;;;;;23.25;91.26;100752.94;6172620;23;20061;-71
2023/08/18 08:42:58;;;;;;;9.75;8.85;;;;;;;23.44;91.37;100765.25;6202814;23;20044;-70
2023/08/18 08:45:28;;;;;;;11.82;10.65;;;;;;;23.48;89.78;100726.41;6201442;23;20079;-70
2023/08/18 08:47:58;;;;;;;11.75;10.50;;;;;;;23.65;90.08;100754.06;6203900;23;20023;-70
2023/08/18 08:50:29;;;;;;;11.05;9.95;;;;;;;23.89;90.49;100778.28;6205085;23;20028;-70
2023/08/18 08:52:59;;;;;;;12.70;10.20;;;;;;;24.27;89.55;100788.50;6203748;23;20023;-70
2023/08/18 08:55:31;;;;;;;11.88;10.68;;;;;;;24.45;86.94;100740.06;6168067;23;20361;-70
2023/08/18 08:57:59;;;;;;;11.60;10.43;;;;;;;24.59;85.23;100691.09;6199369;23;20024;-71
2023/08/18 09:00:26;;;;;;;9.60;8.63;;;;;;;24.67;84.31;100648.13;6201733;23;20019;-70
2023/08/18 09:02:58;;;;;;;9.63;8.82;;;;;;;25.40;82.02;100670.28;6201519;23;20482;-70
2023/08/18 09:05:28;;;;;;;10.35;9.45;;;;;;;25.80;78.27;100638.75;6200122;23;20106;-70
2023/08/18 09:07:54;;;;;;;11.20;10.10;;;;;;;25.51;77.66;100598.34;6197493;23;20715;-70
2023/08/18 09:10:21;;;;;;;9.95;9.02;;;;;;;25.79;78.74;100676.56;6201145;23;20042;-71
2023/08/18 09:12:47;;;;;;;11.07;9.50;;;;;;;25.35;77.52;100575.94;6202637;23;20086;-71
2023/08/18 09:15:15;;;;;;;10.15;9.20;;;;;;;25.59;75.77;100619.78;6197262;23;20087;-71
2023/08/18 09:17:44;;;;;;;8.98;8.20;;;;;;;25.92;76.13;100641.03;6203194;23;20008;-70
2023/08/18 09:20:14;;;;;;;9.50;8.77;;;;;;;25.22;76.23;100538.13;6204071;23;20032;-70
2023/08/18 09:22:40;;;;;;;8.82;8.13;;;;;;;26.27;74.13;100624.19;6203236;23;20043;-71
2023/08/18 09:25:12;;;;;;;8.98;8.27;;;;;;;25.42;72.90;100490.94;6198721;23;20100;-71
2023/08/18 09:27:39;;;;;;;9.65;8.70;;;;;;;26.04;73.54;100613.53;6198302;23;21423;-71
2023/08/18 09:30:06;;;;;;;8.68;7.88;;;;;;;26.33;73.62;100637.94;6200752;23;20020;-71
2023/08/18 09:32:35;;;;;;;8.73;8.02;;;;;;;26.19;73.28;100616.22;6200741;23;20099;-70
2023/08/18 09:35:02;;;;;;;9.68;8.13;;;;;;;26.29;73.78;100625.88;6202395;23;20028;-72
2023/08/18 09:37:30;;;;;;;9.02;8.25;;;;;;;26.30;71.97;100589.88;6200623;23;20024;-71
2023/08/18 09:39:58;;;;;;;9.10;8.20;;;;;;;25.89;73.53;100566.91;6202152;23;20023;-70
2023/08/18 09:42:24;;;;;;;9.05;7.82;;;;;;;24.90;75.23;100502.41;6198181;23;20039;-72
2023/08/18 09:44:51;;;;;;;8.55;7.95;;;;;;;25.19;75.37;100528.53;6174237;23;20028;-71
2023/08/18 09:47:19;;;;;;;9.38;8.68;;;;;;;25.26;74.23;100517.97;6169545;23;20032;-70
2023/08/18 09:49:47;;;;;;;9.07;8.38;;;;;;;25.66;74.04;100570.50;6200525;23;20027;-70
2023/08/18 09:52:16;;;;;;;9.18;8.38;;;;;;;25.91;74.67;100632.13;6173573;23;20473;-70
2023/08/18 09:54:59;;;;;;;8.75;7.85;;;;;;;26.12;75.83;100666.41;6173488;23;20080;-71
2023/08/18 09:57:30;;;;;;;8.88;8.18;;;;;;;26.48;74.74;100668.38;6191934;23;20038;-71
2023/08/18 09:59:59;;;;;;;9.38;8.55;;;;;;;26.35;71.50;100553.31;6169823;23;20020;-71
2023/08/18 10:02:33;;;;;;;8.85;8.15;;;;;;;26.70;72.64;100625.41;6205821;23;22155;-71
2023/08/18 10:05:01;;;;;;;9.25;8.45;;;;;;;26.88;71.59;100609.69;6181656;23;20166;-71
2023/08/18 10:07:28;;;;;;;9.43;8.50;;;;;;;25.87;70.46;100424.59;6208739;23;20094;-71
2023/08/18 10:09:56;;;;;;;9.55;8.75;;;;;;;26.47;71.28;100561.75;6203798;23;20027;-70
2023/08/18 10:12:23;;;;;;;9.15;8.35;;;;;;;26.14;71.16;100521.81;6203206;23;20083;-71
2023/08/18 10:14:52;;;;;;;10.57;8.23;;;;;;;26.02;72.28;100517.88;6201169;23;20031;-69
2023/08/18 10:17:23;;;;;;;8.93;8.27;;;;;;;26.59;70.01;100505.63;6202637;23;20628;-70
2023/08/18 10:19:53;;;;;;;10.05;8.70;;;;;;;26.24;68.65;100409.38;6203915;23;20016;-71
2023/08/18 10:22:22;;;;;;;8.85;8.15;;;;;;;27.13;70.23;100579.72;6201607;23;20091;-70
2023/08/18 10:24:49;;;;;;;8.70;8.00;;;;;;;27.44;69.20;100584.81;6202402;23;20019;-69
2023/08/18 10:27:28;;;;;;;9.52;8.73;;;;;;;27.45;67.92;100559.53;6195991;23;20103;-71
2023/08/18 10:30:15;;;;;;;9.77;8.88;;;;;;;27.22;67.85;100503.97;6170502;23;20028;-69
2023/08/18 10:32:41;;;;;;;9.18;8.40;;;;;;;26.85;67.83;100488.91;6162863;23;20493;-71
2023/08/18 10:35:22;;;;;;;9.57;8.70;;;;;;;27.19;68.71;100566.31;6205700;23;20026;-70
2023/08/18 10:38:05;;;;;;;9.63;8.77;;;;;;;27.01;69.41;100531.72;6173332;23;20021;-70
2023/08/18 10:40:33;;;;;;;;;;;;;;;27.53;67.03;100539.69;6206271;23;20482;-70
2023/08/18 10:43:06;;;;;;;9.02;8.32;;;;;;;27.59;67.65;100538.91;6175909;23;20821;-71
2023/08/18 10:45:33;;;;;;;8.85;8.15;;;;;;;27.76;67.62;100575.31;6199854;23;20063;-70
2023/08/18 10:48:03;;;;;;;9.82;8.93;;;;;;;27.97;66.86;100579.88;6202151;23;20475;-71
2023/08/18 10:50:31;;;;;;;11.80;8.45;;;;;;;27.27;65.92;100402.88;6205362;23;20043;-69
2023/08/18 10:52:58;;;;;;;9.65;8.77;;;;;;;27.65;66.60;100538.13;6205639;23;20446;-71
2023/08/18 10:55:25;;;;;;;9.95;8.95;;;;;;;27.92;65.76;100541.03;6175602;23;20038;-71
2023/08/18 10:57:52;;;;;;;10.02;8.85;;;;;;;27.97;66.13;100550.19;6202572;23;20102;-70
2023/08/18 11:00:19;;;;;;;8.88;8.18;;;;;;;28.07;65.70;100562.50;6202185;23;20020;-70
2023/08/18 11:02:49;;;;;;;9.88;8.98;;;;;;;27.84;63.88;100513.16;6205462;23;20137;-70
2023/08/18 11:05:18;;;;;;;9.65;8.75;;;;;;;27.68;64.85;100536.91;6203389;23;20691;-69
2023/08/18 11:07:45;;;;;;;9.57;8.77;;;;;;;27.48;64.64;100539.44;6180903;23;20028;-69
2023/08/18 11:10:22;;;;;;;9.68;8.77;;;;;;;27.71;66.90;100620.94;6175420;23;20024;-70
2023/08/18 11:12:51;;;;;;;9.73;8.82;;;;;;;27.21;65.91;100579.59;6199629;23;20019;-69
2023/08/18 11:15:22;;;;;;;10.40;9.30;;;;;;;27.71;66.93;100636.28;6175554;23;20024;-69
2023/08/18 11:17:50;;;;;;;9.48;8.68;;;;;;;28.11;65.12;100612.34;6202309;23;20519;-68